Terminal Aerodrome Forecast
Issued by NWS

Home | Current Version | Previous Version | Text Only | Print | Product List | Glossary On
Versions: 1 2 3 4 5 6 7 8 9 10 11 12 13 14 15 16 17 18 19 20 21 22 23 24 25 26 27 28 29 30 31 32
000
FTUS41 KBOX 211538 AAA
TAFFMH
TAF AMD
KFMH 211538Z 2116/2212 06005KT P6SM SCT015 OVC050
     FM211600 04007KT P6SM OVC025
     FM211800 03006KT P6SM OVC020
     FM220300 VRB03KT P6SM OVC020=

USA.gov is the U.S. government's official web portal to all federal, state and local government web resources and services.